createdAt,value
2019-01-20T00:01:12.174Z,95.60
2019-01-20T00:03:41.828Z,95.70
2019-01-20T00:06:11.693Z,95.70
2019-01-20T00:08:41.374Z,95.70
2019-01-20T00:11:16.552Z,95.80
2019-01-20T00:13:42.351Z,95.80
2019-01-20T00:16:12.272Z,95.80
2019-01-20T00:18:44.075Z,95.60
2019-01-20T00:21:13.820Z,95.60
2019-01-20T00:23:45.797Z,95.40
2019-01-20T00:26:15.503Z,95.50
2019-01-20T00:28:45.089Z,95.70
2019-01-20T00:31:14.858Z,95.50
2019-01-20T00:33:44.518Z,95.10
2019-01-20T00:36:20.331Z,95.10
2019-01-20T00:38:50.083Z,95.20
2019-01-20T00:41:24.044Z,95.30
2019-01-20T00:43:51.120Z,94.90
2019-01-20T00:46:20.828Z,95.30
2019-01-20T00:48:50.581Z,94.30
2019-01-20T00:51:20.706Z,94.20
2019-01-20T00:53:50.286Z,94.00
2019-01-20T00:56:19.902Z,93.70
2019-01-20T00:58:49.554Z,94.60
2019-01-20T01:01:19.175Z,94.50
2019-01-20T01:03:48.795Z,94.10
2019-01-20T01:06:19.427Z,94.20
2019-01-20T01:08:48.982Z,94.00
2019-01-20T01:11:18.503Z,94.40
2019-01-20T01:13:48.183Z,94.80
2019-01-20T01:16:18.080Z,94.70
2019-01-20T01:18:47.708Z,94.40
2019-01-20T01:21:17.343Z,94.30
2019-01-20T01:23:46.922Z,94.50
2019-01-20T01:26:16.839Z,94.50
2019-01-20T01:28:46.469Z,94.50
2019-01-20T01:31:16.042Z,94.30
2019-01-20T01:33:45.673Z,94.60
2019-01-20T01:36:15.289Z,94.60
2019-01-20T01:38:44.833Z,94.60
2019-01-20T01:41:14.470Z,93.70
2019-01-20T01:43:57.778Z,93.70
2019-01-20T01:47:18.014Z,93.70
2019-01-20T01:49:47.651Z,94.20
2019-01-20T01:52:17.260Z,94.50
2019-01-20T01:54:46.818Z,94.80
2019-01-20T01:57:16.490Z,94.60
2019-01-20T01:59:46.165Z,94.20
2019-01-20T02:02:15.761Z,94.30
2019-01-20T02:04:45.337Z,93.90
2019-01-20T02:07:15.228Z,94.00
2019-01-20T02:09:44.908Z,94.50
2019-01-20T02:12:14.508Z,94.20
2019-01-20T02:14:44.091Z,93.80
2019-01-20T02:17:13.761Z,93.90
2019-01-20T02:19:43.446Z,94.10
2019-01-20T02:22:13.070Z,94.10
2019-01-20T02:24:42.730Z,93.70
2019-01-20T02:27:12.430Z,94.00
2019-01-20T02:29:42.027Z,94.30
2019-01-20T02:32:11.648Z,94.40
2019-01-20T02:34:41.343Z,94.30
2019-01-20T02:37:10.980Z,94.20
2019-01-20T02:39:40.606Z,93.90
2019-01-20T02:42:10.244Z,93.90
2019-01-20T02:44:39.846Z,94.20
2019-01-20T02:47:09.522Z,94.20
2019-01-20T02:49:39.226Z,94.30
2019-01-20T02:52:08.784Z,93.80
2019-01-20T02:54:38.422Z,94.20
2019-01-20T02:57:08.026Z,93.10
2019-01-20T02:59:37.626Z,93.60
2019-01-20T03:02:07.199Z,93.80
2019-01-20T03:04:36.848Z,93.60
2019-01-20T03:07:06.483Z,94.10
2019-01-20T03:09:36.119Z,93.80
2019-01-20T03:12:05.735Z,93.70
2019-01-20T03:14:35.355Z,93.80
2019-01-20T03:17:05.103Z,94.00
2019-01-20T03:19:36.130Z,94.40
2019-01-20T03:22:06.169Z,94.70
2019-01-20T03:24:35.751Z,94.80
2019-01-20T03:27:05.758Z,94.80
2019-01-20T03:29:35.357Z,95.00
2019-01-20T03:32:04.996Z,94.50
2019-01-20T03:34:34.567Z,94.20
2019-01-20T03:37:04.183Z,94.20
2019-01-20T03:39:33.814Z,93.70
2019-01-20T03:42:11.538Z,93.80
2019-01-20T03:44:34.737Z,93.50
2019-01-20T03:47:04.343Z,93.90
2019-01-20T03:49:33.932Z,93.30
2019-01-20T03:52:03.597Z,93.90
2019-01-20T03:54:33.250Z,93.50
2019-01-20T03:57:02.949Z,93.00
2019-01-20T03:59:32.504Z,93.00
2019-01-20T04:02:02.190Z,93.00
2019-01-20T04:04:31.762Z,93.20
2019-01-20T04:07:01.470Z,93.20
2019-01-20T04:09:31.183Z,93.50
2019-01-20T04:12:00.851Z,93.80
2019-01-20T04:14:30.494Z,93.30
2019-01-20T04:17:00.117Z,93.80
2019-01-20T04:19:29.805Z,93.90
2019-01-20T04:21:59.437Z,93.80
2019-01-20T04:24:29.044Z,93.50
2019-01-20T04:26:58.700Z,92.90
2019-01-20T04:29:28.255Z,93.60
2019-01-20T04:31:57.807Z,94.00
2019-01-20T04:34:27.442Z,94.20
2019-01-20T04:36:57.042Z,94.20
2019-01-20T04:39:26.630Z,93.60
2019-01-20T04:41:56.197Z,93.50
2019-01-20T04:44:25.835Z,93.60
2019-01-20T04:46:55.376Z,93.10
2019-01-20T04:49:24.998Z,93.40
2019-01-20T04:51:54.555Z,93.40
2019-01-20T04:54:24.227Z,92.50
2019-01-20T04:56:53.879Z,93.50
2019-01-20T04:59:23.454Z,93.30
2019-01-20T05:01:53.067Z,92.90
2019-01-20T05:04:22.710Z,92.70
2019-01-20T05:06:52.356Z,93.30
2019-01-20T05:09:21.932Z,92.90
2019-01-20T05:11:51.601Z,93.20
2019-01-20T05:14:21.186Z,93.50
2019-01-20T05:16:50.786Z,93.70
2019-01-20T05:19:20.491Z,94.10
2019-01-20T05:21:50.093Z,93.80
2019-01-20T05:24:19.750Z,93.60
2019-01-20T05:26:49.391Z,93.20
2019-01-20T05:29:18.999Z,93.50
2019-01-20T05:31:50.707Z,92.50
2019-01-20T05:34:20.334Z,92.20
2019-01-20T05:36:52.678Z,93.50
2019-01-20T05:39:22.350Z,94.00
2019-01-20T05:42:17.772Z,94.10
2019-01-20T05:44:48.395Z,93.20
2019-01-20T05:47:18.043Z,93.10
2019-01-20T05:49:55.941Z,93.20
2019-01-20T05:52:25.830Z,92.50
2019-01-20T05:55:27.854Z,91.80
2019-01-20T05:58:03.513Z,92.40
2019-01-20T06:00:40.530Z,92.40
2019-01-20T06:03:10.148Z,92.90
2019-01-20T06:05:52.927Z,92.90
2019-01-20T06:09:13.256Z,93.40
2019-01-20T06:12:10.107Z,93.10
2019-01-20T06:17:46.526Z,93.20
2019-01-20T06:20:21.266Z,93.40
2019-01-20T06:22:50.912Z,93.60
2019-01-20T06:25:20.517Z,93.70
2019-01-20T06:27:50.188Z,93.70
2019-01-20T06:30:22.722Z,93.30
2019-01-20T06:32:52.408Z,92.70
2019-01-20T06:35:22.005Z,92.20
2019-01-20T06:37:51.610Z,92.80
2019-01-20T06:40:26.058Z,93.60
2019-01-20T06:43:02.066Z,93.80
2019-01-20T06:45:30.068Z,93.50
2019-01-20T06:47:59.711Z,93.30
2019-01-20T06:50:32.367Z,92.00
2019-01-20T06:53:02.055Z,91.70
2019-01-20T06:58:24.260Z,92.10
2019-01-20T07:01:30.498Z,92.80
2019-01-20T07:04:21.883Z,93.10
2019-01-20T07:06:51.521Z,92.50
2019-01-20T07:09:21.221Z,92.70
2019-01-20T07:11:50.936Z,91.90
2019-01-20T07:14:20.665Z,92.30
2019-01-20T07:16:52.244Z,92.30
2019-01-20T07:19:25.030Z,92.40
2019-01-20T07:21:54.629Z,92.40
2019-01-20T07:25:01.536Z,92.60
2019-01-20T07:27:31.364Z,92.80
2019-01-20T07:30:05.419Z,92.60
2019-01-20T07:32:34.179Z,92.60
2019-01-20T07:35:03.862Z,92.70
2019-01-20T07:37:33.673Z,92.90
2019-01-20T07:40:03.303Z,93.10
2019-01-20T07:42:35.201Z,92.70
2019-01-20T07:45:05.936Z,93.00
2019-01-20T07:47:35.575Z,93.40
2019-01-20T07:50:07.191Z,93.30
2019-01-20T07:52:36.916Z,93.20
2019-01-20T07:55:07.308Z,93.10
2019-01-20T07:57:36.911Z,92.90
2019-01-20T08:00:09.139Z,93.00
2019-01-20T08:02:38.915Z,93.20
2019-01-20T08:05:08.963Z,93.40
2019-01-20T08:07:38.619Z,93.40
2019-01-20T08:10:11.905Z,93.30
2019-01-20T08:12:41.512Z,93.50
2019-01-20T08:15:11.733Z,93.60
2019-01-20T08:17:41.359Z,93.60
2019-01-20T08:20:13.902Z,93.50
2019-01-20T08:22:43.530Z,93.40
2019-01-20T08:25:13.845Z,93.50
2019-01-20T08:27:43.574Z,93.70
2019-01-20T08:30:20.630Z,93.50
2019-01-20T08:32:50.320Z,93.70
2019-01-20T08:35:20.115Z,93.30
2019-01-20T08:37:49.767Z,93.50
2019-01-20T08:40:27.891Z,93.40
2019-01-20T08:43:01.149Z,93.20
2019-01-20T08:45:56.319Z,93.10
2019-01-20T08:48:26.019Z,92.80
2019-01-20T08:50:55.917Z,93.00
2019-01-20T08:53:25.609Z,92.80
2019-01-20T08:55:55.324Z,93.00
2019-01-20T08:58:35.933Z,93.40
2019-01-20T09:01:05.909Z,93.40
2019-01-20T09:03:35.673Z,93.10
2019-01-20T09:06:06.084Z,93.60
2019-01-20T09:08:39.160Z,93.60
2019-01-20T09:11:08.736Z,93.60
2019-01-20T09:13:39.787Z,93.60
2019-01-20T09:16:09.858Z,93.80
2019-01-20T09:18:39.535Z,93.70
2019-01-20T09:21:10.005Z,93.70
2019-01-20T09:23:39.789Z,93.80
2019-01-20T09:26:09.442Z,94.00
2019-01-20T09:28:39.050Z,94.20
2019-01-20T09:31:08.647Z,94.10
2019-01-20T09:33:38.351Z,93.90
2019-01-20T09:36:07.965Z,92.40
2019-01-20T09:38:37.571Z,90.80
2019-01-20T09:41:09.567Z,90.80
2019-01-20T09:43:39.230Z,91.50
2019-01-20T09:46:09.066Z,92.40
2019-01-20T09:48:38.675Z,92.90
2019-01-20T09:51:08.340Z,93.30
2019-01-20T09:53:38.112Z,93.50
2019-01-20T09:56:07.791Z,93.60
2019-01-20T09:58:37.532Z,93.70
2019-01-20T10:01:07.720Z,93.50
2019-01-20T10:03:37.285Z,93.30
2019-01-20T10:06:06.993Z,93.40
2019-01-20T10:08:36.736Z,93.20
2019-01-20T10:11:06.422Z,93.30
2019-01-20T10:13:36.053Z,93.10
2019-01-20T10:16:05.785Z,92.90
2019-01-20T10:18:35.569Z,92.70
2019-01-20T10:21:05.342Z,92.50
2019-01-20T10:23:36.704Z,92.70
2019-01-20T10:26:06.342Z,92.50
2019-01-20T10:28:35.937Z,92.50
2019-01-20T10:31:06.043Z,91.90
2019-01-20T10:33:35.702Z,91.70
2019-01-20T10:36:06.518Z,92.20
2019-01-20T10:38:37.431Z,92.40
2019-01-20T10:41:07.269Z,91.60
2019-01-20T10:43:36.910Z,91.40
2019-01-20T10:46:06.622Z,91.20
2019-01-20T10:48:36.537Z,91.40
2019-01-20T10:51:06.276Z,90.70
2019-01-20T10:53:36.074Z,91.00
2019-01-20T10:56:05.895Z,90.90
2019-01-20T10:58:35.615Z,90.60
2019-01-20T11:01:07.691Z,89.60
2019-01-20T11:03:37.372Z,90.70
2019-01-20T11:06:07.081Z,90.30
2019-01-20T11:08:36.759Z,89.90
2019-01-20T11:11:06.404Z,90.50
2019-01-20T11:13:36.087Z,90.70
2019-01-20T11:16:07.191Z,90.90
2019-01-20T11:18:36.864Z,91.10
2019-01-20T11:21:06.550Z,90.90
2019-01-20T11:23:36.515Z,91.20
2019-01-20T11:26:07.241Z,91.20
2019-01-20T11:28:37.049Z,90.90
2019-01-20T11:31:06.741Z,90.90
2019-01-20T11:33:36.532Z,90.60
2019-01-20T11:36:06.336Z,90.90
2019-01-20T11:38:36.158Z,90.80
2019-01-20T11:41:05.951Z,90.60
2019-01-20T11:43:35.777Z,91.50
2019-01-20T11:46:05.419Z,90.30
2019-01-20T11:48:35.069Z,90.70
2019-01-20T11:51:07.902Z,90.90
2019-01-20T11:53:37.483Z,90.70
2019-01-20T11:56:07.222Z,90.40
2019-01-20T11:58:37.041Z,90.50
2019-01-20T12:01:06.692Z,90.80
2019-01-20T12:03:36.331Z,90.50
2019-01-20T12:06:06.118Z,90.70
2019-01-20T12:08:35.798Z,90.60
2019-01-20T12:11:05.358Z,89.10
2019-01-20T12:13:38.142Z,89.70
2019-01-20T12:16:07.902Z,90.00
2019-01-20T12:18:37.572Z,89.00
2019-01-20T12:21:07.332Z,88.80
2019-01-20T12:23:36.983Z,89.30
2019-01-20T12:26:08.123Z,89.50
2019-01-20T12:28:39.157Z,89.40
2019-01-20T12:31:08.911Z,90.00
2019-01-20T12:33:40.424Z,89.50
2019-01-20T12:36:13.227Z,89.60
2019-01-20T12:38:42.983Z,89.10
2019-01-20T12:41:20.840Z,89.80
2019-01-20T12:43:50.489Z,88.90
2019-01-20T12:46:20.177Z,88.70
2019-01-20T12:48:51.233Z,88.50
2019-01-20T12:51:28.277Z,89.10
2019-01-20T12:53:52.468Z,87.80
2019-01-20T12:56:22.143Z,87.40
2019-01-20T12:58:53.213Z,87.10
2019-01-20T13:01:22.917Z,86.30
2019-01-20T13:03:52.738Z,86.70
2019-01-20T13:06:22.977Z,86.60
2019-01-20T13:08:58.086Z,87.50
2019-01-20T13:11:28.445Z,87.50
2019-01-20T13:14:10.476Z,88.20
2019-01-20T13:16:40.107Z,88.00
2019-01-20T13:19:13.929Z,86.50
2019-01-20T13:21:49.870Z,87.30
2019-01-20T13:24:24.314Z,87.20
2019-01-20T13:26:55.866Z,86.30
2019-01-20T13:29:25.565Z,85.90
2019-01-20T13:31:55.444Z,85.60
2019-01-20T13:34:28.238Z,86.20
2019-01-20T13:37:01.183Z,86.80
2019-01-20T13:39:31.308Z,86.80
2019-01-20T13:42:01.061Z,85.90
2019-01-20T13:44:30.879Z,86.30
2019-01-20T13:47:00.598Z,86.80
2019-01-20T13:49:30.919Z,87.30
2019-01-20T13:52:23.281Z,87.40
2019-01-20T13:55:10.752Z,84.90
2019-01-20T13:57:44.962Z,84.20
2019-01-20T14:00:17.434Z,84.30
2019-01-20T14:02:49.283Z,84.50
2019-01-20T14:05:23.658Z,85.90
2019-01-20T14:07:53.774Z,86.00
2019-01-20T14:10:23.913Z,86.50
2019-01-20T14:12:53.693Z,86.90
2019-01-20T14:15:23.431Z,87.40
2019-01-20T14:17:53.114Z,87.10
2019-01-20T14:20:23.014Z,87.00
2019-01-20T14:22:52.871Z,87.00
2019-01-20T14:25:23.747Z,86.70
2019-01-20T14:27:56.438Z,87.40
2019-01-20T14:30:38.361Z,87.40
2019-01-20T14:33:08.022Z,86.70
2019-01-20T14:35:37.669Z,87.50
2019-01-20T14:38:07.336Z,87.50
2019-01-20T14:40:37.003Z,87.50
2019-01-20T14:43:08.386Z,87.50
2019-01-20T14:45:38.177Z,88.00
2019-01-20T14:48:07.918Z,88.30
2019-01-20T14:50:37.565Z,88.70
2019-01-20T14:53:07.271Z,88.80
2019-01-20T14:55:36.972Z,88.80
2019-01-20T14:58:10.627Z,89.30
2019-01-20T15:00:40.579Z,89.60
2019-01-20T15:03:10.314Z,89.90
2019-01-20T15:05:40.084Z,90.00
2019-01-20T15:08:10.027Z,90.10
2019-01-20T15:10:39.667Z,90.00
2019-01-20T15:13:09.372Z,90.10
2019-01-20T15:15:42.677Z,90.20
2019-01-20T15:18:12.455Z,90.40
2019-01-20T15:20:42.276Z,90.60
2019-01-20T15:23:12.065Z,90.70
2019-01-20T15:25:42.280Z,91.30
2019-01-20T15:28:14.982Z,91.30
2019-01-20T15:30:44.759Z,91.50
2019-01-20T15:33:14.443Z,91.80
2019-01-20T15:35:44.498Z,92.10
2019-01-20T15:38:14.213Z,92.20
2019-01-20T15:40:43.893Z,92.40
2019-01-20T15:43:13.629Z,92.60
2019-01-20T15:45:46.053Z,92.80
2019-01-20T15:48:14.863Z,93.10
2019-01-20T15:50:44.607Z,93.30
2019-01-20T15:53:14.257Z,93.40
2019-01-20T15:55:45.536Z,93.50
2019-01-20T15:58:16.016Z,93.50
2019-01-20T16:00:47.697Z,93.60
2019-01-20T16:03:17.432Z,93.60
2019-01-20T16:05:50.458Z,93.60
2019-01-20T16:08:26.474Z,93.60
2019-01-20T16:12:03.299Z,93.60
2019-01-20T16:14:36.079Z,93.60
2019-01-20T16:17:17.037Z,93.50
2019-01-20T16:20:14.721Z,93.40
2019-01-20T16:22:55.389Z,93.90
2019-01-20T16:25:37.382Z,90.80
2019-01-20T16:28:08.442Z,91.20
2019-01-20T16:30:40.640Z,91.80
2019-01-20T16:33:10.369Z,92.60
2019-01-20T16:35:40.067Z,92.70
2019-01-20T16:38:12.592Z,92.90
2019-01-20T16:40:44.092Z,93.10
2019-01-20T16:43:13.801Z,93.30
2019-01-20T16:45:47.105Z,93.00
2019-01-20T16:48:16.768Z,92.90
2019-01-20T16:50:46.538Z,92.70
2019-01-20T16:53:16.141Z,92.30
2019-01-20T16:55:45.869Z,92.10
2019-01-20T16:58:16.592Z,92.00
2019-01-20T17:00:49.861Z,91.90
2019-01-20T17:03:26.382Z,92.00
2019-01-20T17:09:48.345Z,92.40
2019-01-20T17:12:32.707Z,92.50
2019-01-20T17:15:02.500Z,93.00
2019-01-20T17:17:43.516Z,93.30
2019-01-20T17:20:33.213Z,93.30
2019-01-20T17:23:33.383Z,93.30
2019-01-20T17:26:07.921Z,93.20
2019-01-20T17:28:37.729Z,93.30
2019-01-20T17:31:31.879Z,93.30
2019-01-20T17:34:08.424Z,93.40
2019-01-20T17:36:38.081Z,93.50
2019-01-20T17:39:12.146Z,93.50
2019-01-20T17:41:44.946Z,93.50
2019-01-20T17:44:17.146Z,93.50
2019-01-20T17:46:48.870Z,93.40
2019-01-20T17:49:21.171Z,93.60
2019-01-20T17:51:55.526Z,93.60
2019-01-20T17:54:25.316Z,93.80
2019-01-20T17:57:00.332Z,93.80
2019-01-20T17:59:29.946Z,93.60
2019-01-20T18:01:59.672Z,93.70
2019-01-20T18:04:30.128Z,93.80
2019-01-20T18:07:01.137Z,93.80
2019-01-20T18:09:30.922Z,93.90
2019-01-20T18:12:00.562Z,93.60
2019-01-20T18:14:31.825Z,93.50
2019-01-20T18:17:01.436Z,93.50
2019-01-20T18:19:31.268Z,93.60
2019-01-20T18:22:01.008Z,93.60
2019-01-20T18:24:38.245Z,93.50
2019-01-20T18:27:07.946Z,93.70
2019-01-20T18:29:37.530Z,93.40
2019-01-20T18:32:07.258Z,93.50
2019-01-20T18:34:37.052Z,93.50
2019-01-20T18:37:11.221Z,93.60
2019-01-20T18:39:40.930Z,93.60
2019-01-20T18:42:10.582Z,93.80
2019-01-20T18:44:45.388Z,93.80
2019-01-20T18:47:17.455Z,93.80
2019-01-20T18:49:53.760Z,93.70
2019-01-20T18:52:23.679Z,93.70
2019-01-20T18:55:01.046Z,93.40
2019-01-20T18:57:34.638Z,93.60
2019-01-20T19:00:17.439Z,93.70
2019-01-20T19:02:52.432Z,93.90
2019-01-20T19:05:21.692Z,94.10
2019-01-20T19:07:55.502Z,94.30
2019-01-20T19:10:23.213Z,94.50
2019-01-20T19:12:52.966Z,94.60
2019-01-20T19:15:24.950Z,94.40
2019-01-20T19:17:54.821Z,94.40
2019-01-20T19:20:24.960Z,94.50
2019-01-20T19:22:56.589Z,94.70
2019-01-20T19:25:26.450Z,94.70
2019-01-20T19:27:56.284Z,94.90
2019-01-20T19:30:31.128Z,94.80
2019-01-20T19:33:00.902Z,94.30
2019-01-20T19:35:30.737Z,94.30
2019-01-20T19:38:00.739Z,94.30
2019-01-20T19:40:31.667Z,94.40
2019-01-20T19:43:01.431Z,94.60
2019-01-20T19:45:31.442Z,94.80
2019-01-20T19:48:01.114Z,95.00
2019-01-20T19:50:30.819Z,95.30
2019-01-20T19:53:00.770Z,95.50
2019-01-20T19:55:32.460Z,95.60
2019-01-20T19:58:02.361Z,95.60
2019-01-20T20:00:33.116Z,95.80
2019-01-20T20:03:02.830Z,95.70
2019-01-20T20:05:33.179Z,95.40
2019-01-20T20:08:02.897Z,95.40
2019-01-20T20:10:32.711Z,95.50
2019-01-20T20:13:05.592Z,95.50
2019-01-20T20:15:35.399Z,95.60
2019-01-20T20:18:07.671Z,95.20
2019-01-20T20:20:37.311Z,95.20
2019-01-20T20:23:07.195Z,95.40
2019-01-20T20:25:37.026Z,95.50
2019-01-20T20:28:06.854Z,95.60
2019-01-20T20:30:39.426Z,95.60
2019-01-20T20:33:09.038Z,95.90
2019-01-20T20:35:47.442Z,96.10
2019-01-20T20:38:17.844Z,96.30
2019-01-20T20:40:50.389Z,96.10
2019-01-20T20:43:20.260Z,95.90
2019-01-20T20:45:50.109Z,96.40
2019-01-20T20:48:19.932Z,96.40
2019-01-20T20:50:49.744Z,96.30
2019-01-20T20:53:19.617Z,96.30
2019-01-20T20:55:49.341Z,96.40
2019-01-20T20:58:19.152Z,96.60
2019-01-20T21:01:12.531Z,96.80
2019-01-20T21:03:44.512Z,96.50
2019-01-20T21:06:41.344Z,96.60
2019-01-20T21:09:15.221Z,96.70
2019-01-20T21:11:47.597Z,96.60
2019-01-20T21:14:27.870Z,96.60
2019-01-20T21:16:56.017Z,96.80
2019-01-20T21:19:25.953Z,96.70
2019-01-20T21:21:55.850Z,96.70
2019-01-20T21:24:28.147Z,96.70
2019-01-20T21:26:57.874Z,96.70
2019-01-20T21:29:32.527Z,96.80
2019-01-20T21:32:16.612Z,97.10
2019-01-20T21:34:46.112Z,97.00
2019-01-20T21:37:51.589Z,97.10
2019-01-20T21:40:02.952Z,97.00
2019-01-20T21:42:32.672Z,97.00
2019-01-20T21:45:02.353Z,97.00
2019-01-20T21:47:32.318Z,97.20
2019-01-20T21:50:11.204Z,97.30
2019-01-20T21:52:58.527Z,97.20
2019-01-20T21:55:28.325Z,97.10
2019-01-20T21:57:58.265Z,97.00
2019-01-20T22:00:32.005Z,97.00
2019-01-20T22:03:01.693Z,96.90
2019-01-20T22:05:31.453Z,96.70
2019-01-20T22:08:01.181Z,96.60
2019-01-20T22:10:31.047Z,96.60
2019-01-20T22:13:00.691Z,96.20
2019-01-20T22:15:30.298Z,96.10
2019-01-20T22:18:00.030Z,96.20
2019-01-20T22:20:29.653Z,96.20
2019-01-20T22:23:01.260Z,96.50
2019-01-20T22:25:31.538Z,96.40
2019-01-20T22:28:01.240Z,96.40
2019-01-20T22:30:31.210Z,96.30
2019-01-20T22:33:03.893Z,96.40
2019-01-20T22:35:33.623Z,96.40
2019-01-20T22:38:19.642Z,96.50
2019-01-20T22:41:00.691Z,96.60
2019-01-20T22:43:30.418Z,97.20
2019-01-20T22:46:24.272Z,96.90
2019-01-20T22:48:57.040Z,96.80
2019-01-20T22:51:39.786Z,96.80
2019-01-20T22:54:09.537Z,96.90
2019-01-20T22:56:44.992Z,96.50
2019-01-20T22:59:14.620Z,96.30
2019-01-20T23:01:44.256Z,96.30
2019-01-20T23:04:13.937Z,96.90
2019-01-20T23:06:43.639Z,97.10
2019-01-20T23:09:13.299Z,97.10
2019-01-20T23:11:42.884Z,97.10
2019-01-20T23:14:12.532Z,97.00
2019-01-20T23:16:42.236Z,97.10
2019-01-20T23:19:12.109Z,97.10
2019-01-20T23:21:42.076Z,97.10
2019-01-20T23:24:11.790Z,97.00
2019-01-20T23:26:41.489Z,96.80
2019-01-20T23:29:11.227Z,96.90
2019-01-20T23:31:41.022Z,96.70
2019-01-20T23:34:10.756Z,96.80
2019-01-20T23:36:40.459Z,96.80
2019-01-20T23:39:10.132Z,96.70
2019-01-20T23:42:21.055Z,96.60
2019-01-20T23:44:50.834Z,96.70
2019-01-20T23:47:20.539Z,96.60
2019-01-20T23:49:50.310Z,96.60
2019-01-20T23:52:19.938Z,96.40
2019-01-20T23:54:49.532Z,96.20
2019-01-20T23:57:19.237Z,96.30
2019-01-20T23:59:48.852Z,96.20
